createdAt,value
2023-03-19T00:00:49.584Z,8.29
2023-03-19T00:03:37.212Z,8.26
2023-03-19T00:06:04.637Z,8.08
2023-03-19T00:08:32.369Z,7.97
2023-03-19T00:10:59.648Z,8.03
2023-03-19T00:13:27.499Z,8.08
2023-03-19T00:15:54.773Z,8.02
2023-03-19T00:18:22.421Z,8.00
2023-03-19T00:20:49.626Z,7.94
2023-03-19T00:23:17.161Z,7.95
2023-03-19T00:25:44.514Z,7.96
2023-03-19T00:28:12.195Z,8.08
2023-03-19T00:30:39.592Z,7.96
2023-03-19T00:33:07.295Z,7.81
2023-03-19T00:35:34.811Z,7.93
2023-03-19T00:38:03.018Z,7.97
2023-03-19T00:40:30.615Z,7.95
2023-03-19T00:42:58.272Z,7.96
2023-03-19T00:45:25.558Z,7.90
2023-03-19T00:47:53.154Z,7.94
2023-03-19T00:50:20.568Z,7.92
2023-03-19T00:52:48.116Z,7.93
2023-03-19T00:55:15.454Z,7.89
2023-03-19T00:57:42.984Z,7.91
2023-03-19T01:00:11.501Z,7.87
2023-03-19T01:02:39.002Z,7.91
2023-03-19T01:05:08.155Z,7.98
2023-03-19T01:07:35.989Z,7.91
2023-03-19T01:10:03.666Z,7.90
2023-03-19T01:12:31.244Z,7.93
2023-03-19T01:14:58.619Z,7.86
2023-03-19T01:17:26.468Z,7.88
2023-03-19T01:19:53.719Z,7.86
2023-03-19T01:22:21.420Z,7.83
2023-03-19T01:24:48.814Z,7.78
2023-03-19T01:27:16.497Z,7.73
2023-03-19T01:29:43.747Z,7.70
2023-03-19T01:32:11.743Z,7.69
2023-03-19T01:34:39.040Z,7.64
2023-03-19T01:37:06.591Z,7.68
2023-03-19T01:39:34.023Z,7.65
2023-03-19T01:42:03.359Z,7.74
2023-03-19T01:44:37.439Z,7.68
2023-03-19T01:47:32.244Z,7.67
2023-03-19T01:50:00.730Z,7.67
2023-03-19T01:52:34.966Z,7.52
2023-03-19T01:55:05.888Z,7.56
2023-03-19T01:57:33.666Z,7.62
2023-03-19T02:00:05.493Z,7.55
2023-03-19T02:02:35.456Z,7.51
2023-03-19T02:05:10.845Z,7.54
2023-03-19T02:07:43.115Z,7.51
2023-03-19T02:10:17.795Z,7.47
2023-03-19T02:12:45.369Z,7.51
2023-03-19T02:15:13.072Z,7.42
2023-03-19T02:17:42.362Z,7.40
2023-03-19T02:20:34.964Z,7.43
2023-03-19T02:23:42.411Z,7.33
2023-03-19T02:26:20.468Z,7.23
2023-03-19T02:28:51.550Z,7.27
2023-03-19T02:31:20.859Z,7.26
2023-03-19T02:34:28.704Z,7.18
2023-03-19T02:37:05.571Z,7.18
2023-03-19T02:39:58.038Z,7.14
2023-03-19T02:42:30.023Z,7.03
2023-03-19T02:44:58.721Z,7.06
2023-03-19T02:47:27.725Z,7.01
2023-03-19T02:49:55.314Z,6.98
2023-03-19T02:52:22.778Z,7.04
2023-03-19T02:54:50.566Z,6.95
2023-03-19T02:57:17.913Z,6.98
2023-03-19T02:59:45.505Z,6.93
2023-03-19T03:02:13.490Z,6.90
2023-03-19T03:04:41.965Z,6.92
2023-03-19T03:07:10.137Z,6.85
2023-03-19T03:09:38.017Z,6.83
2023-03-19T03:12:06.232Z,6.81
2023-03-19T03:14:33.877Z,6.81
2023-03-19T03:17:01.165Z,6.82
2023-03-19T03:19:28.779Z,6.76
2023-03-19T03:21:56.088Z,6.86
2023-03-19T03:24:24.342Z,6.80
2023-03-19T03:26:51.752Z,6.77
2023-03-19T03:29:19.546Z,6.83
2023-03-19T03:31:46.884Z,6.73
2023-03-19T03:34:14.519Z,6.67
2023-03-19T03:36:41.796Z,6.66
2023-03-19T03:39:09.447Z,6.73
2023-03-19T03:41:36.735Z,6.72
2023-03-19T03:44:04.425Z,6.72
2023-03-19T03:46:31.725Z,6.62
2023-03-19T03:48:59.246Z,6.68
2023-03-19T03:51:26.514Z,6.68
2023-03-19T03:53:54.112Z,6.66
2023-03-19T03:56:21.347Z,6.69
2023-03-19T03:58:48.895Z,6.68
2023-03-19T04:01:17.574Z,6.70
2023-03-19T04:03:45.711Z,6.69
2023-03-19T04:06:19.948Z,6.70
2023-03-19T04:08:47.937Z,6.69
2023-03-19T04:11:15.453Z,6.67
2023-03-19T04:13:42.982Z,6.60
2023-03-19T04:16:11.311Z,6.65
2023-03-19T04:18:39.123Z,6.62
2023-03-19T04:21:07.294Z,6.63
2023-03-19T04:23:35.169Z,6.61
2023-03-19T04:26:05.635Z,6.50
2023-03-19T04:28:34.170Z,6.61
2023-03-19T04:31:08.071Z,6.51
2023-03-19T04:33:36.574Z,6.54
2023-03-19T04:36:05.136Z,6.55
2023-03-19T04:38:32.978Z,6.49
2023-03-19T04:41:01.853Z,6.48
2023-03-19T04:43:30.172Z,6.44
2023-03-19T04:45:57.531Z,6.54
2023-03-19T04:48:26.618Z,6.46
2023-03-19T04:50:57.074Z,6.46
2023-03-19T04:53:25.067Z,6.44
2023-03-19T04:55:52.336Z,6.45
2023-03-19T04:58:19.855Z,6.43
2023-03-19T05:00:47.690Z,6.48
2023-03-19T05:03:16.601Z,6.48
2023-03-19T05:05:43.928Z,6.53
2023-03-19T05:08:11.772Z,6.57
2023-03-19T05:10:39.682Z,6.58
2023-03-19T05:13:07.442Z,6.63
2023-03-19T05:15:34.858Z,6.66
2023-03-19T05:18:02.474Z,6.68
2023-03-19T05:20:29.836Z,6.72
2023-03-19T05:22:57.455Z,6.77
2023-03-19T05:25:24.804Z,6.79
2023-03-19T05:27:52.526Z,6.86
2023-03-19T05:30:19.911Z,6.87
2023-03-19T05:32:47.776Z,6.91
2023-03-19T05:35:15.268Z,6.94
2023-03-19T05:37:42.949Z,6.96
2023-03-19T05:40:12.518Z,7.05
2023-03-19T05:42:40.041Z,7.08
2023-03-19T05:45:07.993Z,7.16
2023-03-19T05:47:35.629Z,7.25
2023-03-19T05:50:03.191Z,7.24
2023-03-19T05:52:31.076Z,7.30
2023-03-19T05:54:58.408Z,7.40
2023-03-19T05:57:26.751Z,7.48
2023-03-19T05:59:54.113Z,7.51
2023-03-19T06:02:22.298Z,7.49
2023-03-19T06:04:49.671Z,7.55
2023-03-19T06:07:17.194Z,7.58
2023-03-19T06:09:44.535Z,7.69
2023-03-19T06:12:12.253Z,7.80
2023-03-19T06:14:39.555Z,7.87
2023-03-19T06:17:07.392Z,7.96
2023-03-19T06:19:34.698Z,8.05
2023-03-19T06:22:02.615Z,8.04
2023-03-19T06:24:30.624Z,8.17
2023-03-19T06:26:58.330Z,8.22
2023-03-19T06:29:27.121Z,8.38
2023-03-19T06:31:57.874Z,8.51
2023-03-19T06:34:25.623Z,8.65
2023-03-19T06:36:53.979Z,8.79
2023-03-19T06:39:21.871Z,8.95
2023-03-19T06:41:49.528Z,8.94
2023-03-19T06:44:17.032Z,9.13
2023-03-19T06:46:45.219Z,9.33
2023-03-19T06:49:12.586Z,9.29
2023-03-19T06:51:40.430Z,9.53
2023-03-19T06:54:07.787Z,9.68
2023-03-19T06:56:35.498Z,9.82
2023-03-19T06:59:03.047Z,10.11
2023-03-19T07:01:30.742Z,10.45
2023-03-19T07:03:58.060Z,10.74
2023-03-19T07:06:25.612Z,10.99
2023-03-19T07:08:52.852Z,11.38
2023-03-19T07:11:20.873Z,11.51
2023-03-19T07:13:48.172Z,11.58
2023-03-19T07:16:15.782Z,11.82
2023-03-19T07:18:43.066Z,12.13
2023-03-19T07:21:10.802Z,12.40
2023-03-19T07:23:38.228Z,12.82
2023-03-19T07:26:05.867Z,13.07
2023-03-19T07:28:33.237Z,12.98
2023-03-19T07:31:00.777Z,13.66
2023-03-19T07:33:28.205Z,14.55
2023-03-19T07:35:56.034Z,15.77
2023-03-19T07:38:23.386Z,17.90
2023-03-19T07:41:01.499Z,19.87
2023-03-19T07:43:29.588Z,22.61
2023-03-19T07:45:57.509Z,23.70
2023-03-19T07:48:25.092Z,25.88
2023-03-19T07:50:54.373Z,27.48
2023-03-19T07:53:21.665Z,28.90
2023-03-19T07:55:49.349Z,28.16
2023-03-19T07:58:17.162Z,30.14
2023-03-19T08:00:48.153Z,31.65
2023-03-19T08:03:16.171Z,32.53
2023-03-19T08:05:43.736Z,33.35
2023-03-19T08:08:11.083Z,33.29
2023-03-19T08:10:39.327Z,31.74
2023-03-19T08:13:06.945Z,32.54
2023-03-19T08:15:34.915Z,33.47
2023-03-19T08:18:05.179Z,35.11
2023-03-19T08:20:33.724Z,33.62
2023-03-19T08:23:01.342Z,29.17
2023-03-19T08:25:32.514Z,31.25
2023-03-19T08:28:01.359Z,34.58
2023-03-19T08:30:29.121Z,34.72
2023-03-19T08:32:56.833Z,35.33
2023-03-19T08:35:27.126Z,36.54
2023-03-19T08:37:55.425Z,37.29
2023-03-19T08:40:23.708Z,39.12
2023-03-19T08:42:51.171Z,39.22
2023-03-19T08:45:19.221Z,40.48
2023-03-19T08:47:46.714Z,41.39
2023-03-19T08:50:14.948Z,42.44
2023-03-19T08:52:42.861Z,44.65
2023-03-19T08:55:10.870Z,44.56
2023-03-19T08:57:38.281Z,44.14
2023-03-19T09:00:07.836Z,43.95
2023-03-19T09:02:35.338Z,46.46
2023-03-19T09:05:03.493Z,45.06
2023-03-19T09:07:30.828Z,44.11
2023-03-19T09:09:58.395Z,43.39
2023-03-19T09:12:26.178Z,42.94
2023-03-19T09:14:53.812Z,39.02
2023-03-19T09:17:21.230Z,35.45
2023-03-19T09:19:48.839Z,33.82
2023-03-19T09:22:16.222Z,36.22
2023-03-19T09:24:43.887Z,37.74
2023-03-19T09:27:11.237Z,40.02
2023-03-19T09:29:38.862Z,40.56
2023-03-19T09:32:06.572Z,41.79
2023-03-19T09:34:34.268Z,44.55
2023-03-19T09:37:01.525Z,46.81
2023-03-19T09:39:29.425Z,48.86
2023-03-19T09:42:50.278Z,48.80
2023-03-19T09:45:20.530Z,47.39
2023-03-19T09:47:56.453Z,48.44
2023-03-19T09:50:32.378Z,47.10
2023-03-19T09:53:39.432Z,46.92
2023-03-19T09:56:14.860Z,45.94
2023-03-19T09:58:44.027Z,44.09
2023-03-19T10:01:35.482Z,40.16
2023-03-19T10:04:37.594Z,39.68
2023-03-19T10:07:19.145Z,39.59
2023-03-19T10:10:18.528Z,39.66
2023-03-19T10:12:58.277Z,41.67
2023-03-19T10:15:36.954Z,43.79
2023-03-19T10:18:32.719Z,44.40
2023-03-19T10:21:16.432Z,40.66
2023-03-19T10:23:49.413Z,43.11
2023-03-19T10:26:26.540Z,46.90
2023-03-19T10:29:11.390Z,48.96
2023-03-19T10:31:50.260Z,50.38
2023-03-19T10:34:36.054Z,51.05
2023-03-19T10:37:26.395Z,51.65
2023-03-19T10:40:00.318Z,52.88
2023-03-19T10:43:04.896Z,53.61
2023-03-19T10:45:38.590Z,49.82
2023-03-19T10:48:13.481Z,47.73
2023-03-19T10:50:58.241Z,45.75
2023-03-19T10:53:38.569Z,47.21
2023-03-19T10:56:19.110Z,48.77
2023-03-19T10:59:06.373Z,49.86
2023-03-19T11:01:41.443Z,52.01
2023-03-19T11:04:22.345Z,55.12
2023-03-19T11:07:06.514Z,57.71
2023-03-19T11:09:38.628Z,58.25
2023-03-19T11:12:53.228Z,58.07
2023-03-19T11:15:29.693Z,54.69
2023-03-19T11:18:01.271Z,55.48
2023-03-19T11:20:33.673Z,58.15
2023-03-19T11:23:04.248Z,56.91
2023-03-19T11:25:38.125Z,53.26
2023-03-19T11:28:15.016Z,52.74
2023-03-19T11:31:29.203Z,54.52
2023-03-19T11:34:25.059Z,55.88
2023-03-19T11:37:05.352Z,54.64
2023-03-19T11:39:54.552Z,55.84
2023-03-19T11:43:09.436Z,56.41
2023-03-19T11:45:59.626Z,56.43
2023-03-19T11:49:07.199Z,54.75
2023-03-19T11:51:50.887Z,54.47
2023-03-19T11:54:50.692Z,53.05
2023-03-19T11:57:58.042Z,52.09
2023-03-19T12:00:48.445Z,48.37
2023-03-19T12:04:08.201Z,50.20
2023-03-19T12:07:06.081Z,48.55
2023-03-19T12:09:41.866Z,49.40
2023-03-19T12:12:25.461Z,48.43
2023-03-19T12:15:42.270Z,48.17
2023-03-19T12:18:42.788Z,46.16
2023-03-19T12:21:42.063Z,47.62
2023-03-19T12:25:01.080Z,48.01
2023-03-19T12:28:00.916Z,48.44
2023-03-19T12:30:53.974Z,50.61
2023-03-19T12:33:49.359Z,49.10
2023-03-19T12:36:25.689Z,47.43
2023-03-19T12:39:15.693Z,47.46
2023-03-19T12:41:48.449Z,48.22
2023-03-19T12:44:28.908Z,49.19
2023-03-19T12:47:05.393Z,48.78
2023-03-19T12:49:52.526Z,49.15
2023-03-19T12:52:51.898Z,49.40
2023-03-19T12:55:50.504Z,49.69
2023-03-19T12:59:17.290Z,50.18
2023-03-19T13:02:25.882Z,48.50
2023-03-19T13:05:23.185Z,48.58
2023-03-19T13:08:19.785Z,46.08
2023-03-19T13:10:47.131Z,46.61
2023-03-19T13:13:40.915Z,43.82
2023-03-19T13:16:35.251Z,40.84
2023-03-19T13:19:21.549Z,40.33
2023-03-19T13:21:55.526Z,41.08
2023-03-19T13:24:28.075Z,41.42
2023-03-19T13:26:58.617Z,41.85
2023-03-19T13:29:32.266Z,42.15
2023-03-19T13:32:44.045Z,40.38
2023-03-19T13:35:36.661Z,41.98
2023-03-19T13:38:27.942Z,41.66
2023-03-19T13:41:00.430Z,40.96
2023-03-19T13:43:30.636Z,40.81
2023-03-19T13:46:13.014Z,41.73
2023-03-19T13:48:46.477Z,42.21
2023-03-19T13:51:20.354Z,42.08
2023-03-19T13:54:12.932Z,43.18
2023-03-19T13:57:08.661Z,41.67
2023-03-19T13:59:39.385Z,41.07
2023-03-19T14:02:22.056Z,40.35
2023-03-19T14:05:04.329Z,38.80
2023-03-19T14:07:41.024Z,39.07
2023-03-19T14:10:25.533Z,39.33
2023-03-19T14:13:08.495Z,38.36
2023-03-19T14:15:41.603Z,37.24
2023-03-19T14:18:19.509Z,36.33
2023-03-19T14:21:12.934Z,35.19
2023-03-19T14:23:52.716Z,33.92
2023-03-19T14:26:23.198Z,32.45
2023-03-19T14:29:08.490Z,31.80
2023-03-19T14:31:44.133Z,31.03
2023-03-19T14:34:11.784Z,30.01
2023-03-19T14:36:47.646Z,30.11
2023-03-19T14:39:29.256Z,29.82
2023-03-19T14:42:29.111Z,29.33
2023-03-19T14:45:20.210Z,29.01
2023-03-19T14:48:32.923Z,29.07
2023-03-19T14:51:27.917Z,29.83
2023-03-19T14:54:07.351Z,30.24
2023-03-19T14:56:36.815Z,30.08
2023-03-19T14:59:06.536Z,29.91
2023-03-19T15:01:41.355Z,29.08
2023-03-19T15:04:15.994Z,28.54
2023-03-19T15:07:04.573Z,26.92
2023-03-19T15:09:34.251Z,27.20
2023-03-19T15:12:13.567Z,26.49
2023-03-19T15:15:11.530Z,25.69
2023-03-19T15:17:39.499Z,25.15
2023-03-19T15:20:22.755Z,24.59
2023-03-19T15:23:01.632Z,24.28
2023-03-19T15:25:29.252Z,23.69
2023-03-19T15:28:13.772Z,23.29
2023-03-19T15:30:53.904Z,23.02
2023-03-19T15:33:40.101Z,22.60
2023-03-19T15:36:19.121Z,22.31
2023-03-19T15:39:07.416Z,22.18
2023-03-19T15:41:43.033Z,21.90
2023-03-19T15:44:42.768Z,21.60
2023-03-19T15:47:22.030Z,21.16
2023-03-19T15:50:16.422Z,21.08
2023-03-19T15:52:54.405Z,20.90
2023-03-19T15:55:25.092Z,20.74
2023-03-19T15:58:02.990Z,20.68
2023-03-19T16:00:30.763Z,20.56
2023-03-19T16:02:58.347Z,20.60
2023-03-19T16:05:32.104Z,20.49
2023-03-19T16:08:17.612Z,20.42
2023-03-19T16:10:48.651Z,20.30
2023-03-19T16:13:37.917Z,20.11
2023-03-19T16:16:23.894Z,20.00
2023-03-19T16:18:57.785Z,19.91
2023-03-19T16:21:28.206Z,19.84
2023-03-19T16:24:09.123Z,19.68
2023-03-19T16:26:43.247Z,19.59
2023-03-19T16:29:45.801Z,19.40
2023-03-19T16:32:24.180Z,19.23
2023-03-19T16:34:57.202Z,19.12
2023-03-19T16:37:45.089Z,18.87
2023-03-19T16:40:12.283Z,18.78
2023-03-19T16:42:45.276Z,18.64
2023-03-19T16:45:16.087Z,18.51
2023-03-19T16:47:52.487Z,18.35
2023-03-19T16:50:31.678Z,18.23
2023-03-19T16:53:01.386Z,18.18
2023-03-19T16:55:36.869Z,18.04
2023-03-19T16:58:11.974Z,17.97
2023-03-19T17:00:39.666Z,17.88
2023-03-19T17:03:17.337Z,17.75
2023-03-19T17:05:46.827Z,17.70
2023-03-19T17:08:15.135Z,17.59
2023-03-19T17:10:51.039Z,17.47
2023-03-19T17:13:28.469Z,17.16
2023-03-19T17:16:14.742Z,16.72
2023-03-19T17:18:44.011Z,16.61
2023-03-19T17:21:16.665Z,16.57
2023-03-19T17:23:44.373Z,16.49
2023-03-19T17:26:28.106Z,16.46
2023-03-19T17:28:57.141Z,16.50
2023-03-19T17:31:31.776Z,16.50
2023-03-19T17:34:05.959Z,16.46
2023-03-19T17:36:33.808Z,16.40
2023-03-19T17:39:01.878Z,16.37
2023-03-19T17:41:32.740Z,16.31
2023-03-19T17:44:03.237Z,16.27
2023-03-19T17:46:38.785Z,16.13
2023-03-19T17:49:12.437Z,15.99
2023-03-19T17:51:39.701Z,15.93
2023-03-19T17:54:12.721Z,15.86
2023-03-19T17:56:43.382Z,15.83
2023-03-19T17:59:11.768Z,15.78
2023-03-19T18:01:45.238Z,15.77
2023-03-19T18:04:17.305Z,15.69
2023-03-19T18:06:54.516Z,15.64
2023-03-19T18:09:28.387Z,15.57
2023-03-19T18:11:56.172Z,15.52
2023-03-19T18:14:23.829Z,15.48
2023-03-19T18:16:51.609Z,15.41
2023-03-19T18:19:30.340Z,15.34
2023-03-19T18:21:58.025Z,15.34
2023-03-19T18:24:25.807Z,15.30
2023-03-19T18:26:53.544Z,15.29
2023-03-19T18:29:21.126Z,15.28
2023-03-19T18:31:50.508Z,15.19
2023-03-19T18:34:18.770Z,15.19
2023-03-19T18:36:46.200Z,15.17
2023-03-19T18:39:15.959Z,15.14
2023-03-19T18:41:44.201Z,15.15
2023-03-19T18:44:12.464Z,15.04
2023-03-19T18:46:41.853Z,15.05
2023-03-19T18:49:36.426Z,14.98
2023-03-19T18:52:04.071Z,14.92
2023-03-19T18:54:32.314Z,14.84
2023-03-19T18:57:02.951Z,14.75
2023-03-19T18:59:33.808Z,14.69
2023-03-19T19:02:33.808Z,14.53
2023-03-19T19:05:02.175Z,14.52
2023-03-19T19:07:29.699Z,14.43
2023-03-19T19:09:57.264Z,14.45
2023-03-19T19:12:26.689Z,14.35
2023-03-19T19:14:54.558Z,14.36
2023-03-19T19:17:29.280Z,14.30
2023-03-19T19:19:57.158Z,14.24
2023-03-19T19:22:24.617Z,14.23
2023-03-19T19:24:52.229Z,14.14
2023-03-19T19:27:24.496Z,14.16
2023-03-19T19:29:53.221Z,14.13
2023-03-19T19:32:26.348Z,14.07
2023-03-19T19:34:54.570Z,14.03
2023-03-19T19:37:23.662Z,14.09
2023-03-19T19:39:51.881Z,14.09
2023-03-19T19:42:22.724Z,14.00
2023-03-19T19:44:58.956Z,14.03
2023-03-19T19:47:27.855Z,14.02
2023-03-19T19:49:56.561Z,14.02
2023-03-19T19:52:23.961Z,14.03
2023-03-19T19:54:52.058Z,14.02
2023-03-19T19:57:24.794Z,13.99
2023-03-19T19:59:54.034Z,14.02
2023-03-19T20:02:28.505Z,13.97
2023-03-19T20:04:57.981Z,13.95
2023-03-19T20:07:25.812Z,13.91
2023-03-19T20:09:53.466Z,13.80
2023-03-19T20:12:31.064Z,13.78
2023-03-19T20:14:59.638Z,13.70
2023-03-19T20:17:27.387Z,13.66
2023-03-19T20:19:55.114Z,13.53
2023-03-19T20:22:22.391Z,13.50
2023-03-19T20:24:51.523Z,13.47
2023-03-19T20:27:30.265Z,13.43
2023-03-19T20:29:57.949Z,13.43
2023-03-19T20:32:39.196Z,13.32
2023-03-19T20:35:18.308Z,13.31
2023-03-19T20:37:46.715Z,13.32
2023-03-19T20:40:15.353Z,13.38
2023-03-19T20:42:48.538Z,13.29
2023-03-19T20:45:24.494Z,13.22
2023-03-19T20:47:53.022Z,13.10
2023-03-19T20:50:33.242Z,13.04
2023-03-19T20:53:03.843Z,12.97
2023-03-19T20:55:35.363Z,12.87
2023-03-19T20:58:14.353Z,12.86
2023-03-19T21:00:42.292Z,12.75
2023-03-19T21:03:16.933Z,12.70
2023-03-19T21:05:46.782Z,12.65
2023-03-19T21:08:20.625Z,12.53
2023-03-19T21:10:49.380Z,12.56
2023-03-19T21:13:19.136Z,12.49
2023-03-19T21:15:49.834Z,12.44
2023-03-19T21:18:17.321Z,12.43
2023-03-19T21:20:51.015Z,12.31
2023-03-19T21:23:56.623Z,12.25
2023-03-19T21:26:25.076Z,12.25
2023-03-19T21:29:01.893Z,12.20
2023-03-19T21:31:29.635Z,12.16
2023-03-19T21:33:58.482Z,12.11
2023-03-19T21:36:27.676Z,12.14
2023-03-19T21:38:54.983Z,12.04
2023-03-19T21:41:36.027Z,11.92
2023-03-19T21:44:20.939Z,11.83
2023-03-19T21:46:49.449Z,11.92
2023-03-19T21:49:18.111Z,11.81
2023-03-19T21:51:46.904Z,11.76
2023-03-19T21:54:15.790Z,11.76
2023-03-19T21:56:45.953Z,11.65
2023-03-19T21:59:23.964Z,11.56
2023-03-19T22:01:51.521Z,11.60
2023-03-19T22:04:19.464Z,11.50
2023-03-19T22:06:47.176Z,11.55
2023-03-19T22:09:14.532Z,11.43
2023-03-19T22:11:42.724Z,11.50
2023-03-19T22:14:27.042Z,11.48
2023-03-19T22:16:56.751Z,11.46
2023-03-19T22:19:24.766Z,11.44
2023-03-19T22:21:52.505Z,11.45
2023-03-19T22:24:19.780Z,11.45
2023-03-19T22:26:56.457Z,11.45
2023-03-19T22:29:28.495Z,11.44
2023-03-19T22:31:56.939Z,11.40
2023-03-19T22:34:30.685Z,11.58
2023-03-19T22:36:59.644Z,11.52
2023-03-19T22:39:26.920Z,11.47
2023-03-19T22:41:54.627Z,11.39
2023-03-19T22:44:31.033Z,11.43
2023-03-19T22:47:01.790Z,11.35
2023-03-19T22:49:30.156Z,11.36
2023-03-19T22:51:58.397Z,11.35
2023-03-19T22:54:26.313Z,11.32
2023-03-19T22:56:53.870Z,11.33
2023-03-19T22:59:21.656Z,11.30
2023-03-19T23:01:49.531Z,11.27
2023-03-19T23:04:32.504Z,11.29
2023-03-19T23:07:01.233Z,11.26
2023-03-19T23:09:38.863Z,11.22
2023-03-19T23:14:36.862Z,11.26
2023-03-19T23:17:17.568Z,11.24
2023-03-19T23:19:44.960Z,11.17
2023-03-19T23:22:16.696Z,11.13
2023-03-19T23:24:44.878Z,11.18
2023-03-19T23:27:26.252Z,11.12
2023-03-19T23:29:53.814Z,11.11
2023-03-19T23:32:22.018Z,11.12
2023-03-19T23:34:59.627Z,11.13
2023-03-19T23:37:29.211Z,11.11
2023-03-19T23:39:57.742Z,11.09
2023-03-19T23:42:31.749Z,11.05
2023-03-19T23:45:03.844Z,11.10
2023-03-19T23:47:32.298Z,11.13
2023-03-19T23:49:59.589Z,11.17
2023-03-19T23:52:27.151Z,11.09
2023-03-19T23:54:54.465Z,11.12
2023-03-19T23:57:26.681Z,11.00
2023-03-19T23:59:54.214Z,10.95
